sensor_id;sensor_type;location;lat;lon;timestamp;P1;durP1;ratioP1;P2;durP2;ratioP2
24799;SDS011;12897;50.812;4.430;2023-12-14T00:00:36;39.90;;;13.98;;
24799;SDS011;12897;50.812;4.430;2023-12-14T00:03:03;37.88;;;14.35;;
24799;SDS011;12897;50.812;4.430;2023-12-14T00:05:40;42.55;;;15.00;;
24799;SDS011;12897;50.812;4.430;2023-12-14T00:08:06;34.90;;;13.72;;
24799;SDS011;12897;50.812;4.430;2023-12-14T00:10:34;44.95;;;15.40;;
24799;SDS011;12897;50.812;4.430;2023-12-14T00:13:07;38.85;;;14.73;;
24799;SDS011;12897;50.812;4.430;2023-12-14T00:15:32;39.03;;;14.20;;
24799;SDS011;12897;50.812;4.430;2023-12-14T00:18:00;40.20;;;14.38;;
24799;SDS011;12897;50.812;4.430;2023-12-14T00:20:27;37.35;;;14.23;;
24799;SDS011;12897;50.812;4.430;2023-12-14T00:22:57;36.17;;;13.48;;
24799;SDS011;12897;50.812;4.430;2023-12-14T00:25:24;40.23;;;14.03;;
24799;SDS011;12897;50.812;4.430;2023-12-14T00:27:53;38.75;;;14.90;;
24799;SDS011;12897;50.812;4.430;2023-12-14T00:30:20;45.20;;;15.63;;
24799;SDS011;12897;50.812;4.430;2023-12-14T00:32:51;43.50;;;15.38;;
24799;SDS011;12897;50.812;4.430;2023-12-14T00:35:18;40.60;;;14.70;;
24799;SDS011;12897;50.812;4.430;2023-12-14T00:37:48;40.83;;;14.65;;
24799;SDS011;12897;50.812;4.430;2023-12-14T00:40:16;36.90;;;13.98;;
24799;SDS011;12897;50.812;4.430;2023-12-14T00:45:38;32.38;;;13.25;;
24799;SDS011;12897;50.812;4.430;2023-12-14T00:50:42;39.35;;;14.07;;
24799;SDS011;12897;50.812;4.430;2023-12-14T00:53:12;44.90;;;15.93;;
24799;SDS011;12897;50.812;4.430;2023-12-14T00:55:41;39.30;;;14.50;;
24799;SDS011;12897;50.812;4.430;2023-12-14T00:58:11;36.70;;;13.80;;
24799;SDS011;12897;50.812;4.430;2023-12-14T01:00:39;42.90;;;13.15;;
24799;SDS011;12897;50.812;4.430;2023-12-14T01:03:07;38.92;;;13.38;;
24799;SDS011;12897;50.812;4.430;2023-12-14T01:05:38;40.78;;;12.78;;
24799;SDS011;12897;50.812;4.430;2023-12-14T01:08:03;38.60;;;13.43;;
24799;SDS011;12897;50.812;4.430;2023-12-14T01:10:31;41.55;;;13.70;;
24799;SDS011;12897;50.812;4.430;2023-12-14T01:13:00;48.90;;;15.43;;
24799;SDS011;12897;50.812;4.430;2023-12-14T01:15:30;47.40;;;14.75;;
24799;SDS011;12897;50.812;4.430;2023-12-14T01:17:59;42.20;;;14.23;;
24799;SDS011;12897;50.812;4.430;2023-12-14T01:20:31;47.43;;;13.32;;
24799;SDS011;12897;50.812;4.430;2023-12-14T01:22:59;49.27;;;15.18;;
24799;SDS011;12897;50.812;4.430;2023-12-14T01:25:27;39.40;;;14.23;;
24799;SDS011;12897;50.812;4.430;2023-12-14T01:27:56;47.75;;;14.23;;
24799;SDS011;12897;50.812;4.430;2023-12-14T01:30:25;41.58;;;14.87;;
24799;SDS011;12897;50.812;4.430;2023-12-14T01:32:54;43.33;;;15.28;;
24799;SDS011;12897;50.812;4.430;2023-12-14T01:35:25;42.25;;;15.18;;
24799;SDS011;12897;50.812;4.430;2023-12-14T01:37:56;53.35;;;15.13;;
24799;SDS011;12897;50.812;4.430;2023-12-14T01:40:34;48.90;;;15.45;;
24799;SDS011;12897;50.812;4.430;2023-12-14T01:43:09;51.05;;;15.78;;
24799;SDS011;12897;50.812;4.430;2023-12-14T01:45:40;53.28;;;16.40;;
24799;SDS011;12897;50.812;4.430;2023-12-14T01:48:10;52.62;;;17.20;;
24799;SDS011;12897;50.812;4.430;2023-12-14T01:50:37;52.08;;;15.10;;
24799;SDS011;12897;50.812;4.430;2023-12-14T01:53:06;44.18;;;13.58;;
24799;SDS011;12897;50.812;4.430;2023-12-14T01:55:36;43.28;;;14.85;;
24799;SDS011;12897;50.812;4.430;2023-12-14T01:58:08;45.78;;;13.35;;
24799;SDS011;12897;50.812;4.430;2023-12-14T02:03:05;42.48;;;13.75;;
24799;SDS011;12897;50.812;4.430;2023-12-14T02:05:36;39.90;;;12.60;;
24799;SDS011;12897;50.812;4.430;2023-12-14T02:08:04;49.90;;;14.45;;
24799;SDS011;12897;50.812;4.430;2023-12-14T02:10:33;39.15;;;12.93;;
24799;SDS011;12897;50.812;4.430;2023-12-14T02:13:04;40.78;;;12.33;;
24799;SDS011;12897;50.812;4.430;2023-12-14T02:15:33;48.58;;;12.98;;
24799;SDS011;12897;50.812;4.430;2023-12-14T02:18:04;37.23;;;13.30;;
24799;SDS011;12897;50.812;4.430;2023-12-14T02:20:36;37.78;;;14.18;;
24799;SDS011;12897;50.812;4.430;2023-12-14T02:23:04;37.67;;;12.58;;
24799;SDS011;12897;50.812;4.430;2023-12-14T02:25:33;29.77;;;11.07;;
24799;SDS011;12897;50.812;4.430;2023-12-14T02:28:16;38.67;;;13.18;;
24799;SDS011;12897;50.812;4.430;2023-12-14T02:30:38;30.05;;;12.00;;
24799;SDS011;12897;50.812;4.430;2023-12-14T02:33:05;29.02;;;11.93;;
24799;SDS011;12897;50.812;4.430;2023-12-14T02:38:11;36.80;;;12.93;;
24799;SDS011;12897;50.812;4.430;2023-12-14T02:40:38;36.85;;;13.80;;
24799;SDS011;12897;50.812;4.430;2023-12-14T02:43:09;39.53;;;14.50;;
24799;SDS011;12897;50.812;4.430;2023-12-14T02:45:56;41.92;;;14.30;;
24799;SDS011;12897;50.812;4.430;2023-12-14T02:48:23;33.63;;;13.50;;
24799;SDS011;12897;50.812;4.430;2023-12-14T02:51:01;41.00;;;14.38;;
24799;SDS011;12897;50.812;4.430;2023-12-14T02:53:31;37.20;;;11.73;;
24799;SDS011;12897;50.812;4.430;2023-12-14T02:58:38;35.50;;;11.90;;
24799;SDS011;12897;50.812;4.430;2023-12-14T03:01:07;40.83;;;12.90;;
24799;SDS011;12897;50.812;4.430;2023-12-14T03:03:41;43.35;;;13.28;;
24799;SDS011;12897;50.812;4.430;2023-12-14T03:06:11;35.55;;;12.07;;
24799;SDS011;12897;50.812;4.430;2023-12-14T03:08:39;42.98;;;12.88;;
24799;SDS011;12897;50.812;4.430;2023-12-14T03:11:07;36.10;;;12.10;;
24799;SDS011;12897;50.812;4.430;2023-12-14T03:13:37;36.35;;;11.48;;
24799;SDS011;12897;50.812;4.430;2023-12-14T03:16:10;32.30;;;11.57;;
24799;SDS011;12897;50.812;4.430;2023-12-14T03:18:38;39.18;;;11.75;;
24799;SDS011;12897;50.812;4.430;2023-12-14T03:21:14;43.30;;;13.83;;
24799;SDS011;12897;50.812;4.430;2023-12-14T03:23:45;35.65;;;12.47;;
24799;SDS011;12897;50.812;4.430;2023-12-14T03:26:12;41.77;;;13.32;;
24799;SDS011;12897;50.812;4.430;2023-12-14T03:28:45;36.77;;;11.40;;
24799;SDS011;12897;50.812;4.430;2023-12-14T03:31:13;37.00;;;12.10;;
24799;SDS011;12897;50.812;4.430;2023-12-14T03:33:45;37.78;;;13.38;;
24799;SDS011;12897;50.812;4.430;2023-12-14T03:36:14;40.45;;;13.95;;
24799;SDS011;12897;50.812;4.430;2023-12-14T03:38:53;42.23;;;14.03;;
24799;SDS011;12897;50.812;4.430;2023-12-14T03:41:21;44.10;;;16.00;;
24799;SDS011;12897;50.812;4.430;2023-12-14T03:43:50;40.10;;;14.13;;
24799;SDS011;12897;50.812;4.430;2023-12-14T03:46:42;49.23;;;16.60;;
24799;SDS011;12897;50.812;4.430;2023-12-14T03:48:54;37.88;;;12.82;;
24799;SDS011;12897;50.812;4.430;2023-12-14T03:51:22;46.18;;;16.48;;
24799;SDS011;12897;50.812;4.430;2023-12-14T03:53:54;43.95;;;16.07;;
24799;SDS011;12897;50.812;4.430;2023-12-14T03:56:25;41.25;;;15.20;;
24799;SDS011;12897;50.812;4.430;2023-12-14T03:58:55;42.30;;;15.60;;
24799;SDS011;12897;50.812;4.430;2023-12-14T04:01:31;49.03;;;16.73;;
24799;SDS011;12897;50.812;4.430;2023-12-14T04:04:08;52.95;;;17.27;;
24799;SDS011;12897;50.812;4.430;2023-12-14T04:06:43;45.75;;;17.35;;
24799;SDS011;12897;50.812;4.430;2023-12-14T04:09:23;39.92;;;14.05;;
24799;SDS011;12897;50.812;4.430;2023-12-14T04:12:01;42.03;;;16.45;;
24799;SDS011;12897;50.812;4.430;2023-12-14T04:14:29;43.45;;;15.72;;
24799;SDS011;12897;50.812;4.430;2023-12-14T04:17:02;45.85;;;16.20;;
24799;SDS011;12897;50.812;4.430;2023-12-14T04:19:33;40.70;;;16.35;;
24799;SDS011;12897;50.812;4.430;2023-12-14T04:22:01;38.05;;;12.82;;
24799;SDS011;12897;50.812;4.430;2023-12-14T04:24:29;40.35;;;15.68;;
24799;SDS011;12897;50.812;4.430;2023-12-14T04:26:57;31.25;;;11.05;;
24799;SDS011;12897;50.812;4.430;2023-12-14T04:29:30;34.15;;;13.43;;
24799;SDS011;12897;50.812;4.430;2023-12-14T04:32:08;33.30;;;12.23;;
24799;SDS011;12897;50.812;4.430;2023-12-14T04:34:37;27.62;;;11.85;;
24799;SDS011;12897;50.812;4.430;2023-12-14T04:37:10;31.95;;;12.25;;
24799;SDS011;12897;50.812;4.430;2023-12-14T04:39:44;34.23;;;14.30;;
24799;SDS011;12897;50.812;4.430;2023-12-14T04:42:31;42.55;;;14.40;;
24799;SDS011;12897;50.812;4.430;2023-12-14T04:44:42;34.08;;;11.55;;
24799;SDS011;12897;50.812;4.430;2023-12-14T04:47:16;25.85;;;11.15;;
24799;SDS011;12897;50.812;4.430;2023-12-14T04:49:49;29.65;;;12.35;;
24799;SDS011;12897;50.812;4.430;2023-12-14T04:52:15;33.02;;;13.75;;
24799;SDS011;12897;50.812;4.430;2023-12-14T04:54:53;37.00;;;14.60;;
24799;SDS011;12897;50.812;4.430;2023-12-14T04:57:23;32.13;;;12.50;;
24799;SDS011;12897;50.812;4.430;2023-12-14T04:59:56;30.80;;;13.28;;
24799;SDS011;12897;50.812;4.430;2023-12-14T05:02:28;28.38;;;12.18;;
24799;SDS011;12897;50.812;4.430;2023-12-14T05:04:56;33.20;;;11.75;;
24799;SDS011;12897;50.812;4.430;2023-12-14T05:07:27;30.80;;;13.08;;
24799;SDS011;12897;50.812;4.430;2023-12-14T05:09:54;32.45;;;14.28;;
24799;SDS011;12897;50.812;4.430;2023-12-14T05:12:27;32.67;;;13.08;;
24799;SDS011;12897;50.812;4.430;2023-12-14T05:14:59;32.08;;;13.28;;
24799;SDS011;12897;50.812;4.430;2023-12-14T05:17:28;29.25;;;12.90;;
24799;SDS011;12897;50.812;4.430;2023-12-14T05:20:01;28.60;;;12.30;;
24799;SDS011;12897;50.812;4.430;2023-12-14T05:22:27;31.50;;;13.15;;
24799;SDS011;12897;50.812;4.430;2023-12-14T05:25:10;27.20;;;12.45;;
24799;SDS011;12897;50.812;4.430;2023-12-14T05:29:59;31.12;;;11.33;;
24799;SDS011;12897;50.812;4.430;2023-12-14T05:32:29;30.62;;;12.15;;
24799;SDS011;12897;50.812;4.430;2023-12-14T05:34:57;27.40;;;11.50;;
24799;SDS011;12897;50.812;4.430;2023-12-14T05:37:32;28.57;;;12.50;;
24799;SDS011;12897;50.812;4.430;2023-12-14T05:42:35;23.20;;;10.53;;
24799;SDS011;12897;50.812;4.430;2023-12-14T05:44:57;26.35;;;11.88;;
24799;SDS011;12897;50.812;4.430;2023-12-14T05:47:39;24.25;;;12.03;;
24799;SDS011;12897;50.812;4.430;2023-12-14T05:49:55;25.52;;;12.68;;
24799;SDS011;12897;50.812;4.430;2023-12-14T05:52:26;26.07;;;11.50;;
24799;SDS011;12897;50.812;4.430;2023-12-14T05:54:58;25.88;;;11.57;;
24799;SDS011;12897;50.812;4.430;2023-12-14T05:57:36;22.40;;;10.58;;
24799;SDS011;12897;50.812;4.430;2023-12-14T06:00:09;29.52;;;12.80;;
24799;SDS011;12897;50.812;4.430;2023-12-14T06:02:41;28.65;;;11.70;;
24799;SDS011;12897;50.812;4.430;2023-12-14T06:05:08;25.30;;;11.80;;
24799;SDS011;12897;50.812;4.430;2023-12-14T06:07:37;33.27;;;12.60;;
24799;SDS011;12897;50.812;4.430;2023-12-14T06:10:10;23.60;;;11.33;;
24799;SDS011;12897;50.812;4.430;2023-12-14T06:12:37;20.13;;;9.67;;
24799;SDS011;12897;50.812;4.430;2023-12-14T06:15:08;25.50;;;11.73;;
24799;SDS011;12897;50.812;4.430;2023-12-14T06:17:37;37.17;;;12.58;;
24799;SDS011;12897;50.812;4.430;2023-12-14T06:20:07;29.15;;;11.43;;
24799;SDS011;12897;50.812;4.430;2023-12-14T06:22:37;22.45;;;9.58;;
24799;SDS011;12897;50.812;4.430;2023-12-14T06:25:13;19.25;;;9.95;;
24799;SDS011;12897;50.812;4.430;2023-12-14T06:27:39;24.63;;;10.87;;
24799;SDS011;12897;50.812;4.430;2023-12-14T06:30:14;25.72;;;12.20;;
24799;SDS011;12897;50.812;4.430;2023-12-14T06:32:54;25.10;;;11.30;;
24799;SDS011;12897;50.812;4.430;2023-12-14T06:38:01;27.85;;;10.98;;
24799;SDS011;12897;50.812;4.430;2023-12-14T06:40:33;27.70;;;10.80;;
24799;SDS011;12897;50.812;4.430;2023-12-14T06:43:07;26.48;;;12.03;;
24799;SDS011;12897;50.812;4.430;2023-12-14T06:45:36;27.73;;;11.35;;
24799;SDS011;12897;50.812;4.430;2023-12-14T06:48:10;24.82;;;11.22;;
24799;SDS011;12897;50.812;4.430;2023-12-14T06:50:45;28.50;;;11.10;;
24799;SDS011;12897;50.812;4.430;2023-12-14T06:53:25;25.27;;;11.38;;
24799;SDS011;12897;50.812;4.430;2023-12-14T06:55:57;26.35;;;10.50;;
24799;SDS011;12897;50.812;4.430;2023-12-14T06:58:40;28.40;;;12.07;;
24799;SDS011;12897;50.812;4.430;2023-12-14T07:00:56;25.73;;;11.57;;
24799;SDS011;12897;50.812;4.430;2023-12-14T07:06:14;23.85;;;10.45;;
24799;SDS011;12897;50.812;4.430;2023-12-14T07:11:22;21.52;;;10.70;;
24799;SDS011;12897;50.812;4.430;2023-12-14T07:19:46;19.15;;;8.08;;
24799;SDS011;12897;50.812;4.430;2023-12-14T07:22:13;24.72;;;8.68;;
24799;SDS011;12897;50.812;4.430;2023-12-14T07:24:50;20.00;;;8.65;;
24799;SDS011;12897;50.812;4.430;2023-12-14T07:27:27;20.77;;;8.90;;
24799;SDS011;12897;50.812;4.430;2023-12-14T07:29:57;20.20;;;8.50;;
24799;SDS011;12897;50.812;4.430;2023-12-14T07:32:32;22.40;;;9.87;;
24799;SDS011;12897;50.812;4.430;2023-12-14T07:35:04;21.37;;;9.53;;
24799;SDS011;12897;50.812;4.430;2023-12-14T07:37:29;22.27;;;9.48;;
24799;SDS011;12897;50.812;4.430;2023-12-14T07:40:06;23.45;;;8.95;;
24799;SDS011;12897;50.812;4.430;2023-12-14T07:42:39;18.45;;;9.23;;
24799;SDS011;12897;50.812;4.430;2023-12-14T07:47:53;20.23;;;9.88;;
24799;SDS011;12897;50.812;4.430;2023-12-14T07:50:30;20.82;;;9.60;;
24799;SDS011;12897;50.812;4.430;2023-12-14T07:52:55;25.97;;;9.80;;
24799;SDS011;12897;50.812;4.430;2023-12-14T07:55:54;20.72;;;9.20;;
24799;SDS011;12897;50.812;4.430;2023-12-14T07:58:15;25.25;;;10.53;;
24799;SDS011;12897;50.812;4.430;2023-12-14T08:00:59;22.65;;;10.80;;
24799;SDS011;12897;50.812;4.430;2023-12-14T08:06:06;18.12;;;8.63;;
24799;SDS011;12897;50.812;4.430;2023-12-14T08:08:41;20.82;;;8.83;;
24799;SDS011;12897;50.812;4.430;2023-12-14T08:11:07;19.87;;;8.80;;
24799;SDS011;12897;50.812;4.430;2023-12-14T08:13:35;20.10;;;8.80;;
24799;SDS011;12897;50.812;4.430;2023-12-14T08:16:02;24.23;;;10.18;;
24799;SDS011;12897;50.812;4.430;2023-12-14T08:18:39;18.92;;;9.15;;
24799;SDS011;12897;50.812;4.430;2023-12-14T08:21:06;20.57;;;8.18;;
24799;SDS011;12897;50.812;4.430;2023-12-14T08:23:37;20.20;;;8.45;;
24799;SDS011;12897;50.812;4.430;2023-12-14T08:26:03;20.37;;;9.33;;
24799;SDS011;12897;50.812;4.430;2023-12-14T08:28:36;17.90;;;8.28;;
24799;SDS011;12897;50.812;4.430;2023-12-14T08:31:03;17.48;;;7.90;;
24799;SDS011;12897;50.812;4.430;2023-12-14T08:33:32;18.23;;;8.10;;
24799;SDS011;12897;50.812;4.430;2023-12-14T08:35:59;17.15;;;7.20;;
24799;SDS011;12897;50.812;4.430;2023-12-14T08:38:27;16.85;;;6.92;;
24799;SDS011;12897;50.812;4.430;2023-12-14T08:40:56;15.28;;;6.58;;
24799;SDS011;12897;50.812;4.430;2023-12-14T08:43:24;14.98;;;7.37;;
24799;SDS011;12897;50.812;4.430;2023-12-14T08:45:53;12.30;;;5.80;;
24799;SDS011;12897;50.812;4.430;2023-12-14T08:48:23;12.50;;;6.00;;
24799;SDS011;12897;50.812;4.430;2023-12-14T08:50:56;10.72;;;5.58;;
24799;SDS011;12897;50.812;4.430;2023-12-14T08:53:25;13.00;;;5.93;;
24799;SDS011;12897;50.812;4.430;2023-12-14T08:55:56;15.80;;;6.03;;
24799;SDS011;12897;50.812;4.430;2023-12-14T08:58:25;14.53;;;5.72;;
24799;SDS011;12897;50.812;4.430;2023-12-14T09:01:02;18.15;;;6.33;;
24799;SDS011;12897;50.812;4.430;2023-12-14T09:03:32;15.60;;;6.17;;
24799;SDS011;12897;50.812;4.430;2023-12-14T09:06:02;13.48;;;5.30;;
24799;SDS011;12897;50.812;4.430;2023-12-14T09:08:31;13.93;;;5.78;;
24799;SDS011;12897;50.812;4.430;2023-12-14T09:10:59;15.18;;;6.30;;
24799;SDS011;12897;50.812;4.430;2023-12-14T09:13:29;14.63;;;5.80;;
24799;SDS011;12897;50.812;4.430;2023-12-14T09:15:58;10.88;;;5.30;;
24799;SDS011;12897;50.812;4.430;2023-12-14T09:18:31;11.83;;;4.75;;
24799;SDS011;12897;50.812;4.430;2023-12-14T09:20:55;18.15;;;5.42;;
24799;SDS011;12897;50.812;4.430;2023-12-14T09:23:29;10.43;;;4.63;;
24799;SDS011;12897;50.812;4.430;2023-12-14T09:25:53;9.53;;;5.10;;
24799;SDS011;12897;50.812;4.430;2023-12-14T09:28:21;11.45;;;5.00;;
24799;SDS011;12897;50.812;4.430;2023-12-14T09:30:52;9.08;;;5.05;;
24799;SDS011;12897;50.812;4.430;2023-12-14T09:33:27;13.88;;;5.78;;
24799;SDS011;12897;50.812;4.430;2023-12-14T09:35:49;13.80;;;4.67;;
24799;SDS011;12897;50.812;4.430;2023-12-14T09:38:22;15.55;;;4.95;;
24799;SDS011;12897;50.812;4.430;2023-12-14T09:40:48;11.70;;;4.80;;
24799;SDS011;12897;50.812;4.430;2023-12-14T09:43:26;12.40;;;4.67;;
24799;SDS011;12897;50.812;4.430;2023-12-14T09:45:52;13.70;;;4.83;;
24799;SDS011;12897;50.812;4.430;2023-12-14T09:48:23;11.22;;;4.72;;
24799;SDS011;12897;50.812;4.430;2023-12-14T09:50:51;14.38;;;4.97;;
24799;SDS011;12897;50.812;4.430;2023-12-14T09:53:25;11.33;;;5.28;;
24799;SDS011;12897;50.812;4.430;2023-12-14T09:55:57;11.78;;;4.45;;
24799;SDS011;12897;50.812;4.430;2023-12-14T09:58:25;9.23;;;4.83;;
24799;SDS011;12897;50.812;4.430;2023-12-14T10:01:02;15.83;;;6.70;;
24799;SDS011;12897;50.812;4.430;2023-12-14T10:03:31;11.68;;;5.35;;
24799;SDS011;12897;50.812;4.430;2023-12-14T10:06:01;11.30;;;4.83;;
24799;SDS011;12897;50.812;4.430;2023-12-14T10:11:00;9.18;;;4.15;;
24799;SDS011;12897;50.812;4.430;2023-12-14T10:13:40;8.38;;;4.50;;
24799;SDS011;12897;50.812;4.430;2023-12-14T10:16:12;9.63;;;4.53;;
24799;SDS011;12897;50.812;4.430;2023-12-14T10:18:46;11.22;;;4.35;;
24799;SDS011;12897;50.812;4.430;2023-12-14T10:21:16;6.92;;;3.72;;
24799;SDS011;12897;50.812;4.430;2023-12-14T10:23:49;10.72;;;4.45;;
24799;SDS011;12897;50.812;4.430;2023-12-14T10:26:32;8.63;;;4.25;;
24799;SDS011;12897;50.812;4.430;2023-12-14T10:31:33;8.43;;;3.55;;
24799;SDS011;12897;50.812;4.430;2023-12-14T10:34:05;7.42;;;4.05;;
24799;SDS011;12897;50.812;4.430;2023-12-14T10:39:13;8.83;;;3.83;;
24799;SDS011;12897;50.812;4.430;2023-12-14T10:41:50;8.65;;;3.90;;
24799;SDS011;12897;50.812;4.430;2023-12-14T10:44:24;7.12;;;3.05;;
24799;SDS011;12897;50.812;4.430;2023-12-14T10:46:53;6.92;;;3.67;;
24799;SDS011;12897;50.812;4.430;2023-12-14T10:49:25;12.73;;;3.37;;
24799;SDS011;12897;50.812;4.430;2023-12-14T10:52:11;9.48;;;3.83;;
24799;SDS011;12897;50.812;4.430;2023-12-14T10:54:36;11.33;;;3.98;;
24799;SDS011;12897;50.812;4.430;2023-12-14T10:57:07;10.78;;;3.47;;
24799;SDS011;12897;50.812;4.430;2023-12-14T10:59:37;8.73;;;3.67;;
24799;SDS011;12897;50.812;4.430;2023-12-14T11:02:07;7.25;;;3.65;;
24799;SDS011;12897;50.812;4.430;2023-12-14T11:04:56;12.95;;;3.45;;
24799;SDS011;12897;50.812;4.430;2023-12-14T11:10:26;8.75;;;3.35;;
24799;SDS011;12897;50.812;4.430;2023-12-14T11:13:02;6.65;;;2.90;;
24799;SDS011;12897;50.812;4.430;2023-12-14T11:15:33;7.70;;;3.40;;
24799;SDS011;12897;50.812;4.430;2023-12-14T11:26:05;7.12;;;3.33;;
24799;SDS011;12897;50.812;4.430;2023-12-14T11:28:39;10.68;;;3.27;;
24799;SDS011;12897;50.812;4.430;2023-12-14T11:31:11;5.83;;;3.67;;
24799;SDS011;12897;50.812;4.430;2023-12-14T11:33:42;8.43;;;4.12;;
24799;SDS011;12897;50.812;4.430;2023-12-14T11:36:21;13.95;;;4.35;;
24799;SDS011;12897;50.812;4.430;2023-12-14T11:38:43;10.45;;;3.98;;
24799;SDS011;12897;50.812;4.430;2023-12-14T11:41:13;9.90;;;4.45;;
24799;SDS011;12897;50.812;4.430;2023-12-14T11:43:44;10.10;;;3.95;;
24799;SDS011;12897;50.812;4.430;2023-12-14T11:46:14;9.40;;;3.70;;
24799;SDS011;12897;50.812;4.430;2023-12-14T11:48:44;11.55;;;3.75;;
24799;SDS011;12897;50.812;4.430;2023-12-14T11:51:12;14.75;;;4.33;;
24799;SDS011;12897;50.812;4.430;2023-12-14T11:53:55;9.35;;;3.50;;
24799;SDS011;12897;50.812;4.430;2023-12-14T11:56:14;9.53;;;4.05;;
24799;SDS011;12897;50.812;4.430;2023-12-14T11:58:43;7.90;;;3.33;;
24799;SDS011;12897;50.812;4.430;2023-12-14T12:03:45;13.20;;;4.33;;
24799;SDS011;12897;50.812;4.430;2023-12-14T12:08:56;6.37;;;4.03;;
24799;SDS011;12897;50.812;4.430;2023-12-14T12:11:30;8.15;;;4.30;;
24799;SDS011;12897;50.812;4.430;2023-12-14T12:14:05;13.93;;;4.50;;
24799;SDS011;12897;50.812;4.430;2023-12-14T12:16:37;11.33;;;5.20;;
24799;SDS011;12897;50.812;4.430;2023-12-14T12:19:05;13.50;;;4.75;;
24799;SDS011;12897;50.812;4.430;2023-12-14T12:21:36;9.88;;;4.25;;
24799;SDS011;12897;50.812;4.430;2023-12-14T12:24:05;14.68;;;4.75;;
24799;SDS011;12897;50.812;4.430;2023-12-14T12:26:33;13.98;;;4.65;;
24799;SDS011;12897;50.812;4.430;2023-12-14T12:29:02;10.10;;;4.55;;
24799;SDS011;12897;50.812;4.430;2023-12-14T12:31:32;12.60;;;5.25;;
24799;SDS011;12897;50.812;4.430;2023-12-14T12:34:02;12.30;;;5.67;;
24799;SDS011;12897;50.812;4.430;2023-12-14T12:36:32;14.80;;;5.20;;
24799;SDS011;12897;50.812;4.430;2023-12-14T12:39:03;14.65;;;5.72;;
24799;SDS011;12897;50.812;4.430;2023-12-14T12:41:33;20.20;;;6.42;;
24799;SDS011;12897;50.812;4.430;2023-12-14T12:44:10;13.48;;;5.20;;
24799;SDS011;12897;50.812;4.430;2023-12-14T12:46:38;10.72;;;4.80;;
24799;SDS011;12897;50.812;4.430;2023-12-14T12:49:06;9.38;;;4.90;;
24799;SDS011;12897;50.812;4.430;2023-12-14T12:51:34;11.08;;;3.87;;
24799;SDS011;12897;50.812;4.430;2023-12-14T12:54:11;9.38;;;4.03;;
24799;SDS011;12897;50.812;4.430;2023-12-14T12:56:31;14.27;;;4.43;;
24799;SDS011;12897;50.812;4.430;2023-12-14T12:59:00;9.00;;;3.63;;
24799;SDS011;12897;50.812;4.430;2023-12-14T13:01:33;7.42;;;3.33;;
24799;SDS011;12897;50.812;4.430;2023-12-14T13:03:57;9.48;;;3.45;;
24799;SDS011;12897;50.812;4.430;2023-12-14T13:06:32;9.77;;;3.20;;
24799;SDS011;12897;50.812;4.430;2023-12-14T13:09:01;6.20;;;3.20;;
24799;SDS011;12897;50.812;4.430;2023-12-14T13:11:43;10.38;;;4.10;;
24799;SDS011;12897;50.812;4.430;2023-12-14T13:14:01;7.33;;;3.70;;
24799;SDS011;12897;50.812;4.430;2023-12-14T13:16:30;5.77;;;3.60;;
24799;SDS011;12897;50.812;4.430;2023-12-14T13:18:59;9.40;;;4.05;;
24799;SDS011;12897;50.812;4.430;2023-12-14T13:21:27;11.85;;;3.72;;
24799;SDS011;12897;50.812;4.430;2023-12-14T13:24:04;12.03;;;4.20;;
24799;SDS011;12897;50.812;4.430;2023-12-14T13:26:32;15.50;;;4.20;;
24799;SDS011;12897;50.812;4.430;2023-12-14T13:29:00;10.90;;;3.33;;
24799;SDS011;12897;50.812;4.430;2023-12-14T13:31:30;14.10;;;3.67;;
24799;SDS011;12897;50.812;4.430;2023-12-14T13:34:02;10.90;;;3.70;;
24799;SDS011;12897;50.812;4.430;2023-12-14T13:36:29;10.38;;;3.95;;
24799;SDS011;12897;50.812;4.430;2023-12-14T13:38:57;6.47;;;3.52;;
24799;SDS011;12897;50.812;4.430;2023-12-14T13:41:27;10.48;;;4.28;;
24799;SDS011;12897;50.812;4.430;2023-12-14T13:44:06;8.83;;;3.42;;
24799;SDS011;12897;50.812;4.430;2023-12-14T13:46:34;12.70;;;4.28;;
24799;SDS011;12897;50.812;4.430;2023-12-14T13:49:04;14.00;;;3.60;;
24799;SDS011;12897;50.812;4.430;2023-12-14T13:51:33;10.97;;;3.73;;
24799;SDS011;12897;50.812;4.430;2023-12-14T13:54:02;15.00;;;4.03;;
24799;SDS011;12897;50.812;4.430;2023-12-14T13:56:32;8.15;;;3.65;;
24799;SDS011;12897;50.812;4.430;2023-12-14T13:59:00;8.33;;;3.87;;
24799;SDS011;12897;50.812;4.430;2023-12-14T14:01:33;8.73;;;4.83;;
24799;SDS011;12897;50.812;4.430;2023-12-14T14:04:02;7.78;;;3.60;;
24799;SDS011;12897;50.812;4.430;2023-12-14T14:06:26;7.55;;;3.77;;
24799;SDS011;12897;50.812;4.430;2023-12-14T14:08:54;8.83;;;3.37;;
24799;SDS011;12897;50.812;4.430;2023-12-14T14:11:23;12.60;;;4.70;;
24799;SDS011;12897;50.812;4.430;2023-12-14T14:13:52;9.35;;;4.75;;
24799;SDS011;12897;50.812;4.430;2023-12-14T14:16:20;10.55;;;4.53;;
24799;SDS011;12897;50.812;4.430;2023-12-14T14:18:53;10.80;;;4.08;;
24799;SDS011;12897;50.812;4.430;2023-12-14T14:21:23;15.38;;;4.85;;
24799;SDS011;12897;50.812;4.430;2023-12-14T14:23:53;11.35;;;4.35;;
24799;SDS011;12897;50.812;4.430;2023-12-14T14:26:20;10.15;;;3.95;;
24799;SDS011;12897;50.812;4.430;2023-12-14T14:28:49;10.80;;;4.35;;
24799;SDS011;12897;50.812;4.430;2023-12-14T14:33:48;11.45;;;4.22;;
24799;SDS011;12897;50.812;4.430;2023-12-14T14:36:17;8.07;;;4.37;;
24799;SDS011;12897;50.812;4.430;2023-12-14T14:38:47;11.88;;;4.25;;
24799;SDS011;12897;50.812;4.430;2023-12-14T14:41:21;7.83;;;4.33;;
24799;SDS011;12897;50.812;4.430;2023-12-14T14:43:45;11.23;;;4.23;;
24799;SDS011;12897;50.812;4.430;2023-12-14T14:46:13;10.98;;;4.72;;
24799;SDS011;12897;50.812;4.430;2023-12-14T14:48:41;12.55;;;4.30;;
24799;SDS011;12897;50.812;4.430;2023-12-14T14:51:11;10.13;;;3.90;;
24799;SDS011;12897;50.812;4.430;2023-12-14T14:53:43;10.00;;;3.92;;
24799;SDS011;12897;50.812;4.430;2023-12-14T14:56:10;10.45;;;3.87;;
24799;SDS011;12897;50.812;4.430;2023-12-14T14:58:43;9.53;;;3.98;;
24799;SDS011;12897;50.812;4.430;2023-12-14T15:01:09;6.17;;;3.15;;
24799;SDS011;12897;50.812;4.430;2023-12-14T15:06:10;13.22;;;4.10;;
24799;SDS011;12897;50.812;4.430;2023-12-14T15:08:37;9.93;;;4.35;;
24799;SDS011;12897;50.812;4.430;2023-12-14T15:11:09;6.35;;;3.60;;
24799;SDS011;12897;50.812;4.430;2023-12-14T15:13:37;11.28;;;4.47;;
24799;SDS011;12897;50.812;4.430;2023-12-14T15:16:05;11.57;;;3.77;;
24799;SDS011;12897;50.812;4.430;2023-12-14T15:18:34;7.15;;;3.87;;
24799;SDS011;12897;50.812;4.430;2023-12-14T15:21:04;15.20;;;4.53;;
24799;SDS011;12897;50.812;4.430;2023-12-14T15:23:32;8.68;;;4.55;;
24799;SDS011;12897;50.812;4.430;2023-12-14T15:26:02;9.45;;;3.77;;
24799;SDS011;12897;50.812;4.430;2023-12-14T15:28:32;13.30;;;4.15;;
24799;SDS011;12897;50.812;4.430;2023-12-14T15:31:13;13.68;;;3.70;;
24799;SDS011;12897;50.812;4.430;2023-12-14T15:33:32;10.65;;;3.50;;
24799;SDS011;12897;50.812;4.430;2023-12-14T15:36:02;9.20;;;3.45;;
24799;SDS011;12897;50.812;4.430;2023-12-14T15:38:34;12.70;;;3.77;;
24799;SDS011;12897;50.812;4.430;2023-12-14T15:41:03;6.67;;;3.05;;
24799;SDS011;12897;50.812;4.430;2023-12-14T15:43:35;8.40;;;2.75;;
24799;SDS011;12897;50.812;4.430;2023-12-14T15:48:35;10.27;;;2.83;;
24799;SDS011;12897;50.812;4.430;2023-12-14T15:51:09;6.47;;;2.42;;
24799;SDS011;12897;50.812;4.430;2023-12-14T15:53:57;5.58;;;2.27;;
24799;SDS011;12897;50.812;4.430;2023-12-14T15:56:19;8.60;;;1.80;;
24799;SDS011;12897;50.812;4.430;2023-12-14T15:58:54;6.65;;;2.30;;